Aeroporto :
LOGIN :

Iscrizione | Disclaimer

   EN    FR    IT 

 










Sommario :    VFR   VFR Marginale   IFR   IFR Intensivo   IFR Molto Intensivo
Visibilità : 
Base nubi : 
>= 8 km
>= 3000ft
5 / 8 km
1000 / 3000 ft
1500m / 5 km
500 / 1000 ft
800 / 1500m
200 / 500 ft
< 800m
< 200 ft
Simboli :   Temporali  Nebbia  Neve Forte  Precipitazioni Forti  Vento > 20 kt
SIGMETs :   Varie  Temporali  Ghiacco  Turbolenza  Onda orograficha  Ceneri Vulcaniche






- Altitudine del aeroporto : 529 ft
- Codice IATA : CHR


LFLX - Chateauroux

ULTIMO METAR :
  • 221600Z AUTO 23013KT CAVOK 13/04 Q1031 NOSIG

METARs OBSOLETI :
  • 221530Z AUTO 25014KT CAVOK 13/04 Q1031 NOSIG
  • 221500Z AUTO 25013KT CAVOK 14/04 Q1031 NOSIG
  • 221430Z AUTO 24014KT CAVOK 14/04 Q1030 NOSIG
  • 221400Z AUTO 24012KT CAVOK 14/05 Q1030 NOSIG
  • 221330Z AUTO 24014KT CAVOK 13/05 Q1030 NOSIG

TAF TAF LFLX
Valido dal 22 a 12 ore il 23 a 18 ore UTC


221100Z 2212/2318 23012KT 9999 BKN020
BECMG 2220/2222 BKN012
TEMPO 2301/2318 BKN008
PROB40
TEMPO 2310/2316 23018G28KT



MetMap, La meteo Aeronautica in un colpo d'occhio ! - Copyright ORBIFLY Dicembre 2007 - Disclaimer

ORBIFLY MET'MAP TEAM :

Programmazione e sviluppo : Alexandra Zaïnal
Concezione : Baudouin d'Aumeries
Aiuto per la programmazione : Marc-Olivier Méhu
Supporto tecnico e logistico : Manuel Goepfert
Aiuto per la traduzione : Arnaldo La Scala

Contatto : metmap@orbifly.com




FONTI E CREDITI :

   NOAA